createdAt,value
2019-02-18T00:01:52.606Z,34.07
2019-02-18T00:04:22.928Z,34.33
2019-02-18T00:06:53.213Z,33.70
2019-02-18T00:09:23.440Z,36.40
2019-02-18T00:11:53.629Z,36.27
2019-02-18T00:14:23.861Z,32.70
2019-02-18T00:16:54.167Z,35.73
2019-02-18T00:19:24.462Z,36.77
2019-02-18T00:21:54.862Z,35.43
2019-02-18T00:24:25.134Z,33.77
2019-02-18T00:26:56.283Z,35.47
2019-02-18T00:29:26.500Z,34.57
2019-02-18T00:31:56.819Z,34.17
2019-02-18T00:34:27.136Z,35.07
2019-02-18T00:36:57.350Z,35.33
2019-02-18T00:39:27.565Z,36.07
2019-02-18T00:41:57.908Z,34.20
2019-02-18T00:44:28.146Z,33.27
2019-02-18T00:46:58.400Z,35.53
2019-02-18T00:49:28.636Z,34.03
2019-02-18T00:51:58.896Z,37.07
2019-02-18T00:54:29.160Z,33.40
2019-02-18T00:56:59.431Z,35.10
2019-02-18T00:59:29.613Z,35.40
2019-02-18T01:02:00.230Z,35.53
2019-02-18T01:04:30.470Z,35.93
2019-02-18T01:07:00.715Z,33.50
2019-02-18T01:09:30.986Z,34.37
2019-02-18T01:12:01.177Z,33.87
2019-02-18T01:14:31.378Z,35.70
2019-02-18T01:17:01.813Z,34.57
2019-02-18T01:19:32.162Z,31.37
2019-02-18T01:22:02.389Z,33.70
2019-02-18T01:24:32.638Z,33.57
2019-02-18T01:27:02.828Z,34.67
2019-02-18T01:29:33.147Z,34.37
2019-02-18T01:32:03.340Z,36.70
2019-02-18T01:34:33.627Z,34.23
2019-02-18T01:37:03.965Z,35.40
2019-02-18T01:39:34.207Z,32.87
2019-02-18T01:42:04.429Z,35.00
2019-02-18T01:44:34.655Z,33.57
2019-02-18T01:47:04.908Z,33.80
2019-02-18T01:49:35.150Z,33.53
2019-02-18T01:52:05.452Z,34.73
2019-02-18T01:54:35.659Z,35.57
2019-02-18T01:57:06.065Z,33.63
2019-02-18T01:59:36.267Z,33.77
2019-02-18T02:02:06.814Z,35.77
2019-02-18T02:04:37.106Z,34.47
2019-02-18T02:07:07.310Z,35.50
2019-02-18T02:09:37.498Z,36.43
2019-02-18T02:12:07.739Z,35.30
2019-02-18T02:14:38.095Z,35.23
2019-02-18T02:17:08.318Z,34.77
2019-02-18T02:19:38.519Z,31.87
2019-02-18T02:22:08.710Z,35.90
2019-02-18T02:24:39.012Z,35.07
2019-02-18T02:27:09.230Z,36.03
2019-02-18T02:29:39.478Z,35.23
2019-02-18T02:32:09.681Z,33.43
2019-02-18T02:34:40.015Z,34.83
2019-02-18T02:37:10.263Z,33.90
2019-02-18T02:39:40.489Z,36.40
2019-02-18T02:42:10.716Z,32.33
2019-02-18T02:44:40.921Z,34.57
2019-02-18T02:47:11.227Z,35.00
2019-02-18T02:49:41.446Z,37.53
2019-02-18T02:52:11.838Z,34.93
2019-02-18T02:54:42.100Z,35.23
2019-02-18T02:57:12.303Z,35.03
2019-02-18T02:59:42.571Z,32.80
2019-02-18T03:02:12.978Z,34.77
2019-02-18T03:04:43.286Z,33.83
2019-02-18T03:07:13.477Z,33.43
2019-02-18T03:09:43.755Z,32.77
2019-02-18T03:12:14.014Z,34.50
2019-02-18T03:14:44.208Z,32.83
2019-02-18T03:17:14.489Z,34.23
2019-02-18T03:19:44.741Z,36.03
2019-02-18T03:22:15.010Z,34.40
2019-02-18T03:25:22.122Z,37.17
2019-02-18T03:28:12.799Z,35.77
2019-02-18T03:31:09.340Z,36.87
2019-02-18T03:33:49.126Z,34.83
2019-02-18T03:36:19.413Z,32.83
2019-02-18T03:38:49.594Z,33.30
2019-02-18T03:41:19.819Z,34.43
2019-02-18T03:43:50.051Z,35.73
2019-02-18T03:46:20.232Z,34.20
2019-02-18T03:48:50.453Z,35.10
2019-02-18T03:51:20.693Z,35.63
2019-02-18T03:53:51.005Z,37.37
2019-02-18T03:56:21.207Z,34.47
2019-02-18T03:58:51.409Z,35.90
2019-02-18T04:01:21.660Z,37.43
2019-02-18T04:03:52.315Z,37.00
2019-02-18T04:06:22.717Z,36.67
2019-02-18T04:08:52.903Z,34.20
2019-02-18T04:11:23.142Z,36.00
2019-02-18T04:13:53.410Z,34.67
2019-02-18T04:16:23.588Z,35.47
2019-02-18T04:18:53.805Z,34.87
2019-02-18T04:21:24.025Z,33.13
2019-02-18T04:23:54.299Z,34.70
2019-02-18T04:26:24.681Z,37.57
2019-02-18T04:28:54.874Z,36.00
2019-02-18T04:31:25.093Z,37.07
2019-02-18T04:33:55.765Z,35.43
2019-02-18T04:36:26.141Z,35.03
2019-02-18T04:38:56.364Z,37.73
2019-02-18T04:41:26.621Z,36.90
2019-02-18T04:43:56.855Z,30.50
2019-02-18T04:46:27.181Z,34.90
2019-02-18T04:48:57.404Z,34.20
2019-02-18T04:51:27.624Z,34.27
2019-02-18T04:53:57.828Z,34.00
2019-02-18T04:56:28.020Z,37.47
2019-02-18T04:58:59.377Z,39.27
2019-02-18T05:01:29.674Z,38.33
2019-02-18T05:04:00.147Z,36.97
2019-02-18T05:06:30.455Z,35.33
2019-02-18T05:09:05.207Z,35.07
2019-02-18T05:11:32.938Z,37.80
2019-02-18T05:14:03.208Z,36.60
2019-02-18T05:16:33.368Z,32.03
2019-02-18T05:19:03.830Z,33.60
2019-02-18T05:21:34.074Z,35.50
2019-02-18T05:24:04.393Z,35.43
2019-02-18T05:26:34.712Z,36.53
2019-02-18T05:29:04.945Z,36.83
2019-02-18T05:31:35.228Z,39.50
2019-02-18T05:34:05.417Z,38.53
2019-02-18T05:36:35.791Z,41.63
2019-02-18T05:39:17.408Z,41.03
2019-02-18T05:41:39.786Z,48.63
2019-02-18T05:44:10.016Z,47.43
2019-02-18T05:46:40.277Z,38.93
2019-02-18T05:49:10.487Z,32.67
2019-02-18T05:51:40.763Z,39.57
2019-02-18T05:54:11.059Z,38.73
2019-02-18T05:56:41.535Z,35.37
2019-02-18T05:59:11.748Z,37.27
2019-02-18T06:01:42.065Z,38.93
2019-02-18T06:04:12.464Z,36.00
2019-02-18T06:06:42.686Z,36.07
2019-02-18T06:09:12.917Z,37.30
2019-02-18T06:11:43.175Z,39.40
2019-02-18T06:14:13.485Z,38.93
2019-02-18T06:16:44.037Z,40.40
2019-02-18T06:19:14.306Z,38.90
2019-02-18T06:21:44.568Z,35.87
2019-02-18T06:24:14.800Z,35.83
2019-02-18T06:26:49.622Z,40.07
2019-02-18T06:29:23.025Z,36.00
2019-02-18T06:31:55.300Z,39.60
2019-02-18T06:34:28.800Z,36.90
2019-02-18T06:36:59.243Z,36.90
2019-02-18T06:39:40.886Z,38.00
2019-02-18T06:42:02.902Z,37.47
2019-02-18T06:44:39.740Z,39.80
2019-02-18T06:47:14.360Z,35.63
2019-02-18T06:49:47.323Z,40.63
2019-02-18T06:52:17.851Z,39.60
2019-02-18T06:54:49.320Z,37.17
2019-02-18T06:57:26.979Z,36.87
2019-02-18T07:00:12.348Z,36.80
2019-02-18T07:03:19.235Z,35.37
2019-02-18T07:06:17.232Z,37.60
2019-02-18T07:09:04.488Z,36.87
2019-02-18T07:11:55.624Z,40.17
2019-02-18T07:14:26.065Z,38.17
2019-02-18T07:16:57.556Z,38.97
2019-02-18T07:19:28.037Z,35.77
2019-02-18T07:21:58.302Z,37.87
2019-02-18T07:24:28.555Z,36.80
2019-02-18T07:27:02.066Z,36.30
2019-02-18T07:29:34.144Z,38.43
2019-02-18T07:32:07.973Z,39.80
2019-02-18T07:34:38.459Z,40.83
2019-02-18T07:37:08.757Z,38.07
2019-02-18T07:39:39.133Z,37.80
2019-02-18T07:42:09.357Z,36.47
2019-02-18T07:44:39.576Z,36.13
2019-02-18T07:47:11.893Z,39.27
2019-02-18T07:49:44.429Z,39.43
2019-02-18T07:52:15.176Z,39.93
2019-02-18T07:54:48.206Z,40.70
2019-02-18T07:57:18.628Z,38.77
2019-02-18T07:59:51.491Z,36.53
2019-02-18T08:02:21.894Z,39.87
2019-02-18T08:04:52.155Z,37.63
2019-02-18T08:07:22.685Z,36.57
2019-02-18T08:09:52.986Z,39.07
2019-02-18T08:12:23.303Z,41.77
2019-02-18T08:14:53.477Z,41.37
2019-02-18T08:17:23.780Z,39.07
2019-02-18T08:19:54.050Z,39.20
2019-02-18T08:22:24.261Z,39.47
2019-02-18T08:24:54.510Z,38.20
2019-02-18T08:27:24.910Z,37.67
2019-02-18T08:29:56.092Z,35.40
2019-02-18T08:32:26.460Z,37.00
2019-02-18T08:34:56.830Z,37.43
2019-02-18T08:37:27.391Z,35.57
2019-02-18T08:39:57.968Z,36.80
2019-02-18T08:42:28.850Z,38.20
2019-02-18T08:44:59.085Z,37.63
2019-02-18T08:47:29.734Z,34.90
2019-02-18T08:49:59.936Z,36.17
2019-02-18T08:52:30.204Z,35.97
2019-02-18T08:55:00.484Z,35.77
2019-02-18T08:57:30.703Z,38.33
2019-02-18T09:00:00.988Z,37.37
2019-02-18T09:02:32.327Z,36.27
2019-02-18T09:05:02.775Z,35.37
2019-02-18T09:07:33.413Z,35.03
2019-02-18T09:10:03.723Z,34.30
2019-02-18T09:12:34.043Z,36.10
2019-02-18T09:15:04.716Z,35.47
2019-02-18T09:17:35.267Z,35.50
2019-02-18T09:20:06.172Z,34.40
2019-02-18T09:22:58.394Z,34.93
2019-02-18T09:25:36.739Z,35.27
2019-02-18T09:28:07.020Z,34.30
2019-02-18T09:30:39.336Z,34.57
2019-02-18T09:33:09.962Z,33.60
2019-02-18T09:35:40.280Z,35.33
2019-02-18T09:38:10.572Z,32.20
2019-02-18T09:40:50.722Z,33.53
2019-02-18T09:43:22.270Z,34.27
2019-02-18T09:45:52.494Z,33.80
2019-02-18T09:48:22.792Z,34.00
2019-02-18T09:50:53.497Z,30.57
2019-02-18T09:53:23.717Z,32.30
2019-02-18T09:55:55.797Z,30.97
2019-02-18T09:58:26.038Z,33.90
2019-02-18T10:00:56.306Z,33.30
2019-02-18T10:03:31.914Z,32.30
2019-02-18T10:05:58.534Z,32.67
2019-02-18T10:08:29.060Z,30.77
2019-02-18T10:10:59.715Z,31.23
2019-02-18T10:13:29.981Z,30.90
2019-02-18T10:16:00.248Z,28.90
2019-02-18T10:18:32.181Z,31.03
2019-02-18T10:21:06.496Z,30.20
2019-02-18T10:23:42.690Z,30.70
2019-02-18T10:26:22.081Z,32.00
2019-02-18T10:28:57.992Z,30.93
2019-02-18T10:31:31.437Z,31.60
2019-02-18T10:34:05.950Z,32.13
2019-02-18T10:36:38.861Z,31.33
2019-02-18T10:39:10.985Z,30.67
2019-02-18T10:41:45.350Z,31.83
2019-02-18T10:44:19.803Z,28.90
2019-02-18T10:46:55.421Z,29.30
2019-02-18T10:49:31.662Z,29.43
2019-02-18T10:52:07.301Z,28.47
2019-02-18T10:54:42.644Z,31.30
2019-02-18T10:57:20.545Z,28.40
2019-02-18T10:59:59.200Z,29.13
2019-02-18T11:02:35.548Z,27.60
2019-02-18T11:05:10.730Z,28.97
2019-02-18T11:07:47.125Z,27.80
2019-02-18T11:10:25.366Z,27.07
2019-02-18T11:13:02.852Z,28.63
2019-02-18T11:15:40.462Z,26.97
2019-02-18T11:18:15.867Z,26.47
2019-02-18T11:20:51.262Z,28.00
2019-02-18T11:23:25.731Z,27.10
2019-02-18T11:25:59.094Z,27.80
2019-02-18T11:28:44.165Z,26.53
2019-02-18T11:31:17.608Z,25.00
2019-02-18T11:33:55.696Z,26.43
2019-02-18T11:36:33.612Z,28.43
2019-02-18T11:39:13.804Z,26.33
2019-02-18T11:41:54.896Z,24.83
2019-02-18T11:44:31.811Z,26.80
2019-02-18T11:47:05.823Z,26.37
2019-02-18T11:49:40.589Z,26.23
2019-02-18T11:52:14.184Z,25.23
2019-02-18T11:54:48.921Z,26.23
2019-02-18T11:57:21.121Z,23.27
2019-02-18T11:59:53.230Z,23.63
2019-02-18T12:02:25.314Z,24.00
2019-02-18T12:04:57.985Z,23.27
2019-02-18T12:07:38.775Z,23.00
2019-02-18T12:10:21.874Z,23.50
2019-02-18T12:13:44.987Z,23.40
2019-02-18T12:16:26.881Z,23.07
2019-02-18T12:19:10.393Z,23.10
2019-02-18T12:21:50.621Z,24.47
2019-02-18T12:24:31.997Z,21.60
2019-02-18T12:27:25.527Z,21.50
2019-02-18T12:30:14.324Z,21.97
2019-02-18T12:32:55.140Z,22.40
2019-02-18T12:35:37.069Z,21.80
2019-02-18T12:38:35.838Z,23.87
2019-02-18T12:41:19.570Z,23.20
2019-02-18T12:44:08.135Z,23.70
2019-02-18T12:46:43.557Z,24.50
2019-02-18T12:49:15.531Z,23.43
2019-02-18T12:51:48.138Z,23.07
2019-02-18T12:54:26.926Z,23.27
2019-02-18T12:56:59.140Z,24.27
2019-02-18T12:59:35.742Z,25.37
2019-02-18T13:02:22.271Z,27.47
2019-02-18T13:05:14.953Z,27.03
2019-02-18T13:07:47.799Z,26.67
2019-02-18T13:10:23.713Z,26.30
2019-02-18T13:13:02.983Z,28.90
2019-02-18T13:15:40.652Z,25.53
2019-02-18T13:18:18.681Z,28.50
2019-02-18T13:20:56.104Z,28.17
2019-02-18T13:23:30.886Z,27.13
2019-02-18T13:26:06.882Z,28.77
2019-02-18T13:28:43.362Z,27.90
2019-02-18T13:31:22.026Z,27.30
2019-02-18T13:33:59.664Z,29.33
2019-02-18T13:36:37.152Z,27.10
2019-02-18T13:39:13.849Z,27.03
2019-02-18T13:41:47.483Z,29.73
2019-02-18T13:44:24.639Z,26.27
2019-02-18T13:47:01.414Z,26.77
2019-02-18T13:49:42.041Z,28.07
2019-02-18T13:52:20.346Z,28.40
2019-02-18T13:54:58.699Z,26.43
2019-02-18T13:57:32.490Z,27.87
2019-02-18T14:00:32.903Z,26.27
2019-02-18T14:03:14.201Z,27.23
2019-02-18T14:06:16.393Z,27.73
2019-02-18T14:08:59.284Z,26.57
2019-02-18T14:11:52.221Z,27.80
2019-02-18T14:14:34.073Z,26.60
2019-02-18T14:17:18.551Z,25.77
2019-02-18T14:19:54.244Z,26.80
2019-02-18T14:22:25.594Z,24.07
2019-02-18T14:24:56.372Z,25.70
2019-02-18T14:27:26.824Z,24.80
2019-02-18T14:29:57.250Z,24.67
2019-02-18T14:32:28.209Z,27.50
2019-02-18T14:34:59.431Z,26.03
2019-02-18T14:37:30.181Z,24.20
2019-02-18T14:40:01.114Z,26.57
2019-02-18T14:42:39.194Z,24.03
2019-02-18T14:45:17.041Z,27.33
2019-02-18T14:47:55.622Z,26.17
2019-02-18T14:50:29.013Z,26.53
2019-02-18T14:53:00.443Z,27.77
2019-02-18T14:55:31.132Z,26.13
2019-02-18T14:58:09.870Z,27.00
2019-02-18T15:00:42.119Z,25.67
2019-02-18T15:03:12.486Z,26.27
2019-02-18T15:05:43.057Z,25.73
2019-02-18T15:08:13.471Z,27.60
2019-02-18T15:10:43.761Z,27.23
2019-02-18T15:13:14.089Z,27.23
2019-02-18T15:15:46.327Z,25.20
2019-02-18T15:18:20.548Z,27.50
2019-02-18T15:20:54.674Z,26.20
2019-02-18T15:23:29.451Z,29.27
2019-02-18T15:26:04.509Z,26.77
2019-02-18T15:28:39.143Z,27.13
2019-02-18T15:31:15.214Z,26.33
2019-02-18T15:33:53.180Z,24.23
2019-02-18T15:36:28.437Z,25.10
2019-02-18T15:39:05.970Z,25.90
2019-02-18T15:41:42.161Z,26.63
2019-02-18T15:44:12.955Z,24.67
2019-02-18T15:46:47.901Z,25.47
2019-02-18T15:49:22.915Z,25.33
2019-02-18T15:52:00.325Z,26.43
2019-02-18T15:54:38.028Z,26.13
2019-02-18T15:57:14.006Z,25.27
2019-02-18T15:59:49.805Z,27.23
2019-02-18T16:02:27.087Z,27.70
2019-02-18T16:05:06.716Z,25.53
2019-02-18T16:07:42.310Z,25.37
2019-02-18T16:10:20.203Z,27.07
2019-02-18T16:12:56.860Z,24.23
2019-02-18T16:15:33.508Z,26.03
2019-02-18T16:18:10.171Z,25.53
2019-02-18T16:20:42.426Z,24.90
2019-02-18T16:23:13.541Z,23.83
2019-02-18T16:25:44.122Z,23.20
2019-02-18T16:28:14.347Z,24.80
2019-02-18T16:30:44.573Z,22.93
2019-02-18T16:33:16.485Z,24.90
2019-02-18T16:35:46.948Z,24.63
2019-02-18T16:38:17.200Z,25.10
2019-02-18T16:40:47.440Z,22.10
2019-02-18T16:43:17.669Z,21.07
2019-02-18T16:45:48.028Z,23.43
2019-02-18T16:48:18.669Z,22.90
2019-02-18T16:50:48.891Z,24.10
2019-02-18T16:53:19.495Z,21.20
2019-02-18T16:55:49.717Z,23.87
2019-02-18T16:58:20.055Z,22.90
2019-02-18T17:00:57.278Z,20.13
2019-02-18T17:03:22.634Z,24.27
2019-02-18T17:05:53.126Z,23.73
2019-02-18T17:08:23.507Z,24.20
2019-02-18T17:10:53.716Z,25.47
2019-02-18T17:13:23.986Z,24.77
2019-02-18T17:15:54.242Z,24.97
2019-02-18T17:18:25.028Z,25.73
2019-02-18T17:20:55.929Z,23.10
2019-02-18T17:23:26.196Z,22.93
2019-02-18T17:25:56.452Z,22.43
2019-02-18T17:28:26.998Z,24.47
2019-02-18T17:30:57.237Z,25.33
2019-02-18T17:33:27.472Z,26.00
2019-02-18T17:35:57.749Z,25.37
2019-02-18T17:38:28.028Z,24.50
2019-02-18T17:40:58.303Z,24.47
2019-02-18T17:43:28.596Z,24.57
2019-02-18T17:45:58.919Z,24.33
2019-02-18T17:48:29.568Z,24.73
2019-02-18T17:51:01.954Z,24.63
2019-02-18T17:53:32.378Z,26.47
2019-02-18T17:56:03.721Z,25.80
2019-02-18T17:58:34.036Z,25.37
2019-02-18T18:01:04.836Z,24.03
2019-02-18T18:03:35.130Z,23.30
2019-02-18T18:06:05.499Z,25.20
2019-02-18T18:08:35.772Z,23.73
2019-02-18T18:11:06.078Z,24.27
2019-02-18T18:13:36.354Z,23.00
2019-02-18T18:16:07.026Z,26.00
2019-02-18T18:18:37.623Z,28.17
2019-02-18T18:21:07.937Z,25.37
2019-02-18T18:23:38.592Z,23.13
2019-02-18T18:26:08.892Z,25.13
2019-02-18T18:28:39.175Z,24.50
2019-02-18T18:31:10.693Z,26.47
2019-02-18T18:33:41.587Z,24.10
2019-02-18T18:36:12.062Z,24.57
2019-02-18T18:38:42.464Z,22.17
2019-02-18T18:41:12.763Z,23.97
2019-02-18T18:43:43.127Z,25.33
2019-02-18T18:46:13.431Z,23.73
2019-02-18T18:48:46.002Z,23.40
2019-02-18T18:51:16.313Z,23.53
2019-02-18T18:53:47.913Z,24.20
2019-02-18T18:56:18.230Z,25.40
2019-02-18T18:58:48.620Z,23.90
2019-02-18T19:01:18.914Z,22.73
2019-02-18T19:03:49.282Z,23.50
2019-02-18T19:06:19.532Z,22.83
2019-02-18T19:08:49.959Z,23.90
2019-02-18T19:11:20.494Z,24.03
2019-02-18T19:13:50.766Z,26.33
2019-02-18T19:16:21.101Z,24.27
2019-02-18T19:18:51.641Z,25.63
2019-02-18T19:21:22.264Z,24.40
2019-02-18T19:23:52.487Z,24.63
2019-02-18T19:26:22.798Z,26.10
2019-02-18T19:28:53.176Z,26.77
2019-02-18T19:31:23.426Z,27.00
2019-02-18T19:33:53.695Z,26.17
2019-02-18T19:36:23.929Z,26.33
2019-02-18T19:38:54.299Z,26.47
2019-02-18T19:41:24.640Z,26.90
2019-02-18T19:43:55.036Z,26.07
2019-02-18T19:46:25.294Z,25.57
2019-02-18T19:48:55.568Z,26.13
2019-02-18T19:51:25.775Z,25.67
2019-02-18T19:54:05.115Z,25.80
2019-02-18T19:56:36.965Z,27.23
2019-02-18T19:59:10.498Z,26.57
2019-02-18T20:01:45.324Z,25.40
2019-02-18T20:04:33.009Z,26.47
2019-02-18T20:07:04.242Z,27.03
2019-02-18T20:09:36.531Z,29.47
2019-02-18T20:12:06.841Z,28.53
2019-02-18T20:14:40.111Z,27.67
2019-02-18T20:17:10.472Z,29.37
2019-02-18T20:19:40.864Z,30.00
2019-02-18T20:22:11.148Z,30.73
2019-02-18T20:24:46.426Z,27.97
2019-02-18T20:27:16.718Z,29.47
2019-02-18T20:29:58.308Z,29.47
2019-02-18T20:32:31.070Z,28.50
2019-02-18T20:35:01.445Z,26.93
2019-02-18T20:37:31.687Z,27.47
2019-02-18T20:40:02.067Z,27.80
2019-02-18T20:42:32.532Z,28.77
2019-02-18T20:45:02.950Z,28.67
2019-02-18T20:47:33.211Z,27.30
2019-02-18T20:50:03.515Z,28.27
2019-02-18T20:52:33.861Z,27.50
2019-02-18T20:55:04.158Z,26.23
2019-02-18T20:57:34.777Z,26.90
2019-02-18T21:00:07.147Z,26.13
2019-02-18T21:02:37.459Z,25.70
2019-02-18T21:05:08.173Z,25.23
2019-02-18T21:07:38.444Z,28.03
2019-02-18T21:10:09.696Z,26.83
2019-02-18T21:12:40.035Z,27.87
2019-02-18T21:15:10.398Z,28.17
2019-02-18T21:17:40.752Z,29.83
2019-02-18T21:20:14.847Z,27.93
2019-02-18T21:22:45.127Z,26.50
2019-02-18T21:25:15.439Z,25.93
2019-02-18T21:27:45.824Z,26.20
2019-02-18T21:30:17.335Z,26.10
2019-02-18T21:32:47.627Z,26.70
2019-02-18T21:35:17.908Z,25.67
2019-02-18T21:37:48.479Z,26.30
2019-02-18T21:40:18.926Z,27.00
2019-02-18T21:42:49.241Z,24.70
2019-02-18T21:45:19.494Z,26.20
2019-02-18T21:47:49.847Z,25.77
2019-02-18T21:50:20.582Z,25.27
2019-02-18T21:52:50.862Z,26.07
2019-02-18T21:55:21.245Z,27.13
2019-02-18T21:57:51.675Z,27.00
2019-02-18T22:00:23.375Z,24.10
2019-02-18T22:02:53.654Z,25.47
2019-02-18T22:05:23.954Z,28.77
2019-02-18T22:07:54.293Z,31.77
2019-02-18T22:10:24.529Z,31.00
2019-02-18T22:12:54.825Z,34.47
2019-02-18T22:15:25.160Z,42.13
2019-02-18T22:17:56.130Z,42.87
2019-02-18T22:20:26.797Z,43.17
2019-02-18T22:22:57.121Z,32.17
2019-02-18T22:25:27.377Z,31.30
2019-02-18T22:27:57.611Z,27.80
2019-02-18T22:30:28.211Z,26.83
2019-02-18T22:32:58.851Z,27.27
2019-02-18T22:35:29.213Z,28.00
2019-02-18T22:38:00.497Z,27.87
2019-02-18T22:40:30.794Z,23.90
2019-02-18T22:43:01.159Z,25.23
2019-02-18T22:45:31.424Z,24.63
2019-02-18T22:48:01.979Z,23.40
2019-02-18T22:50:32.379Z,22.80
2019-02-18T22:53:02.672Z,24.53
2019-02-18T22:55:33.278Z,23.40
2019-02-18T22:58:03.558Z,24.30
2019-02-18T23:00:52.095Z,25.87
2019-02-18T23:03:23.116Z,24.90
2019-02-18T23:05:53.579Z,25.90
2019-02-18T23:08:23.874Z,24.63
2019-02-18T23:10:54.266Z,25.03
2019-02-18T23:13:24.829Z,25.43
2019-02-18T23:15:56.777Z,25.87
2019-02-18T23:18:28.371Z,24.90
2019-02-18T23:20:58.932Z,25.13
2019-02-18T23:23:29.609Z,23.63
2019-02-18T23:26:00.379Z,25.13
2019-02-18T23:28:30.709Z,24.57
2019-02-18T23:31:01.008Z,26.37
2019-02-18T23:33:31.429Z,25.47
2019-02-18T23:36:01.688Z,25.37
2019-02-18T23:38:32.023Z,26.30
2019-02-18T23:41:02.840Z,25.10
2019-02-18T23:43:33.721Z,26.60
2019-02-18T23:46:05.577Z,25.40
2019-02-18T23:48:35.978Z,25.57
2019-02-18T23:51:06.266Z,26.50
2019-02-18T23:53:36.534Z,28.33
2019-02-18T23:56:07.086Z,26.20
2019-02-18T23:58:39.653Z,26.90
